createdAt,value
2023-08-11T00:00:41.183Z,2.78
2023-08-11T00:02:42.691Z,3.05
2023-08-11T00:04:44.118Z,2.60
2023-08-11T00:06:45.942Z,3.20
2023-08-11T00:08:47.494Z,3.05
2023-08-11T00:10:48.945Z,3.15
2023-08-11T00:12:50.535Z,2.80
2023-08-11T00:14:53.737Z,2.80
2023-08-11T00:16:55.212Z,3.28
2023-08-11T00:18:56.831Z,2.33
2023-08-11T00:21:01.016Z,2.83
2023-08-11T00:23:02.457Z,3.40
2023-08-11T00:25:04.218Z,3.10
2023-08-11T00:27:06.376Z,2.70
2023-08-11T00:29:08.034Z,2.67
2023-08-11T00:31:09.494Z,2.97
2023-08-11T00:33:11.555Z,3.08
2023-08-11T00:35:13.337Z,2.75
2023-08-11T00:37:15.286Z,2.38
2023-08-11T00:39:16.899Z,2.90
2023-08-11T00:41:18.474Z,3.13
2023-08-11T00:43:19.962Z,2.70
2023-08-11T00:45:21.577Z,3.13
2023-08-11T00:47:23.166Z,2.97
2023-08-11T00:49:25.004Z,3.40
2023-08-11T00:51:27.075Z,3.03
2023-08-11T00:53:28.639Z,2.75
2023-08-11T00:55:30.543Z,3.30
2023-08-11T00:57:32.527Z,2.83
2023-08-11T00:59:34.033Z,3.08
2023-08-11T01:01:36.689Z,3.20
2023-08-11T01:03:38.147Z,3.30
2023-08-11T01:05:45.738Z,3.03
2023-08-11T01:08:13.427Z,2.90
2023-08-11T01:10:34.305Z,3.17
2023-08-11T01:13:26.909Z,3.47
2023-08-11T01:15:33.971Z,3.45
2023-08-11T01:17:37.368Z,3.17
2023-08-11T01:19:39.150Z,3.25
2023-08-11T01:21:41.936Z,3.13
2023-08-11T01:23:43.529Z,2.92
2023-08-11T01:25:45.578Z,3.15
2023-08-11T01:27:53.775Z,3.05
2023-08-11T01:29:55.331Z,3.40
2023-08-11T01:31:56.871Z,3.22
2023-08-11T01:33:58.355Z,3.47
2023-08-11T01:35:59.793Z,3.35
2023-08-11T01:38:01.221Z,3.60
2023-08-11T01:42:32.346Z,3.85
2023-08-11T01:44:37.496Z,4.05
2023-08-11T01:46:39.723Z,4.07
2023-08-11T01:48:41.941Z,4.03
2023-08-11T01:50:43.787Z,4.93
2023-08-11T01:52:48.723Z,4.90
2023-08-11T01:54:50.414Z,4.60
2023-08-11T01:56:52.146Z,4.60
2023-08-11T01:58:53.616Z,4.38
2023-08-11T02:00:55.065Z,5.03
2023-08-11T02:02:58.564Z,4.80
2023-08-11T02:05:00.217Z,4.20
2023-08-11T02:07:01.658Z,4.10
2023-08-11T02:09:05.595Z,4.35
2023-08-11T02:11:07.234Z,4.22
2023-08-11T02:13:08.802Z,3.83
2023-08-11T02:17:39.069Z,3.97
2023-08-11T02:19:40.740Z,3.33
2023-08-11T02:21:43.266Z,3.65
2023-08-11T02:23:44.849Z,3.28
2023-08-11T02:25:46.357Z,3.35
2023-08-11T02:27:48.200Z,3.08
2023-08-11T02:29:50.520Z,3.22
2023-08-11T02:31:52.212Z,3.03
2023-08-11T02:33:53.725Z,3.92
2023-08-11T02:35:55.169Z,2.83
2023-08-11T02:37:56.662Z,3.28
2023-08-11T02:39:58.134Z,3.58
2023-08-11T02:41:59.610Z,3.08
2023-08-11T02:44:01.300Z,3.40
2023-08-11T02:46:02.775Z,3.17
2023-08-11T02:48:04.564Z,3.40
2023-08-11T02:50:06.617Z,3.40
2023-08-11T02:52:08.761Z,3.65
2023-08-11T02:54:10.435Z,3.20
2023-08-11T02:56:16.300Z,3.22
2023-08-11T02:58:17.864Z,3.38
2023-08-11T03:00:19.406Z,3.50
2023-08-11T03:02:20.948Z,3.65
2023-08-11T03:04:22.450Z,3.63
2023-08-11T03:06:23.889Z,4.00
2023-08-11T03:08:25.556Z,3.28
2023-08-11T03:10:27.221Z,3.17
2023-08-11T03:12:31.793Z,3.20
2023-08-11T03:14:33.436Z,4.07
2023-08-11T03:16:34.971Z,3.45
2023-08-11T03:18:36.562Z,3.33
2023-08-11T03:20:38.099Z,3.10
2023-08-11T03:22:43.617Z,2.83
2023-08-11T03:24:45.916Z,3.65
2023-08-11T03:26:47.377Z,3.42
2023-08-11T03:28:48.829Z,3.42
2023-08-11T03:30:50.266Z,4.00
2023-08-11T03:32:52.749Z,3.40
2023-08-11T03:34:54.498Z,3.60
2023-08-11T03:36:55.930Z,3.55
2023-08-11T03:38:57.370Z,3.15
2023-08-11T03:40:58.937Z,3.35
2023-08-11T03:43:00.422Z,3.65
2023-08-11T03:45:02.065Z,3.22
2023-08-11T03:47:03.592Z,4.80
2023-08-11T03:49:07.781Z,3.97
2023-08-11T03:51:09.960Z,4.13
2023-08-11T03:53:11.407Z,3.80
2023-08-11T03:55:13.541Z,3.20
2023-08-11T03:57:15.640Z,4.05
2023-08-11T03:59:17.110Z,5.38
2023-08-11T04:01:19.044Z,3.70
2023-08-11T04:03:20.761Z,3.78
2023-08-11T04:05:22.564Z,4.25
2023-08-11T04:07:24.008Z,4.28
2023-08-11T04:09:25.444Z,3.63
2023-08-11T04:11:28.056Z,3.88
2023-08-11T04:13:29.596Z,5.25
2023-08-11T04:15:32.359Z,3.70
2023-08-11T04:17:34.975Z,4.15
2023-08-11T04:19:36.610Z,4.13
2023-08-11T04:21:40.319Z,3.70
2023-08-11T04:23:41.948Z,3.63
2023-08-11T04:25:46.334Z,4.07
2023-08-11T04:27:47.823Z,3.53
2023-08-11T04:29:49.252Z,3.65
2023-08-11T04:31:50.719Z,3.17
2023-08-11T04:33:52.160Z,3.10
2023-08-11T04:35:54.175Z,3.75
2023-08-11T04:37:55.717Z,3.50
2023-08-11T04:39:57.388Z,3.15
2023-08-11T04:41:58.886Z,3.65
2023-08-11T04:44:00.616Z,3.13
2023-08-11T04:46:02.122Z,2.88
2023-08-11T04:48:03.877Z,2.97
2023-08-11T04:50:05.909Z,2.80
2023-08-11T04:52:07.509Z,2.63
2023-08-11T04:54:09.180Z,2.50
2023-08-11T04:56:10.675Z,2.55
2023-08-11T04:58:12.313Z,2.63
2023-08-11T05:00:18.048Z,2.83
2023-08-11T05:02:19.873Z,2.25
2023-08-11T05:04:22.015Z,2.75
2023-08-11T05:06:23.503Z,2.75
2023-08-11T05:08:25.041Z,2.55
2023-08-11T05:10:26.588Z,2.72
2023-08-11T05:12:28.023Z,3.10
2023-08-11T05:14:29.527Z,2.95
2023-08-11T05:16:31.073Z,3.20
2023-08-11T05:18:42.083Z,2.78
2023-08-11T05:22:49.134Z,3.25
2023-08-11T05:24:50.694Z,3.50
2023-08-11T05:26:52.148Z,3.65
2023-08-11T05:28:53.574Z,3.53
2023-08-11T05:30:57.238Z,3.60
2023-08-11T05:32:59.207Z,3.55
2023-08-11T05:35:00.965Z,3.47
2023-08-11T05:37:04.386Z,3.83
2023-08-11T05:39:07.871Z,3.40
2023-08-11T05:41:10.201Z,3.50
2023-08-11T05:43:11.693Z,3.50
2023-08-11T05:45:14.922Z,4.13
2023-08-11T05:47:17.762Z,3.45
2023-08-11T05:49:19.176Z,3.90
2023-08-11T05:51:20.661Z,3.40
2023-08-11T05:53:22.090Z,3.70
2023-08-11T05:55:23.923Z,3.10
2023-08-11T05:57:25.525Z,3.22
2023-08-11T05:59:27.437Z,3.47
2023-08-11T06:01:29.012Z,3.15
2023-08-11T06:03:33.358Z,3.10
2023-08-11T06:05:34.879Z,3.33
2023-08-11T06:07:36.353Z,2.95
2023-08-11T06:09:37.928Z,3.03
2023-08-11T06:11:39.505Z,3.28
2023-08-11T06:13:41.190Z,2.92
2023-08-11T06:15:42.725Z,2.95
2023-08-11T06:17:45.045Z,3.22
2023-08-11T06:19:46.569Z,3.22
2023-08-11T06:21:48.034Z,2.85
2023-08-11T06:23:49.494Z,3.50
2023-08-11T06:25:50.938Z,4.20
2023-08-11T06:27:52.364Z,3.20
2023-08-11T06:29:53.826Z,3.30
2023-08-11T06:31:55.307Z,4.10
2023-08-11T06:33:56.954Z,3.50
2023-08-11T06:35:58.454Z,3.30
2023-08-11T06:38:00.574Z,3.20
2023-08-11T06:40:02.388Z,3.28
2023-08-11T06:42:03.965Z,3.13
2023-08-11T06:44:06.495Z,3.08
2023-08-11T06:46:08.147Z,3.00
2023-08-11T06:48:09.732Z,3.47
2023-08-11T06:50:11.266Z,3.58
2023-08-11T06:52:12.795Z,4.07
2023-08-11T06:54:14.403Z,3.53
2023-08-11T06:56:15.917Z,3.20
2023-08-11T06:58:17.369Z,3.45
2023-08-11T07:00:18.940Z,3.50
2023-08-11T07:02:20.524Z,3.97
2023-08-11T07:04:22.098Z,3.97
2023-08-11T07:06:23.583Z,4.07
2023-08-11T07:08:25.156Z,4.80
2023-08-11T07:10:26.860Z,4.57
2023-08-11T07:12:28.350Z,4.25
2023-08-11T07:14:29.768Z,4.22
2023-08-11T07:16:31.295Z,3.45
2023-08-11T07:18:32.825Z,2.85
2023-08-11T07:20:34.264Z,2.67
2023-08-11T07:22:35.700Z,3.20
2023-08-11T07:24:37.248Z,2.53
2023-08-11T07:26:38.788Z,2.30
2023-08-11T07:28:41.259Z,2.22
2023-08-11T07:30:42.867Z,2.03
2023-08-11T07:32:44.373Z,2.38
2023-08-11T07:34:45.868Z,1.90
2023-08-11T07:36:47.376Z,2.05
2023-08-11T07:38:49.032Z,2.10
2023-08-11T07:40:50.844Z,2.20
2023-08-11T07:42:52.317Z,2.75
2023-08-11T07:44:53.827Z,2.25
2023-08-11T07:46:55.302Z,1.98
2023-08-11T07:48:56.802Z,2.78
2023-08-11T07:50:58.311Z,2.17
2023-08-11T07:52:59.769Z,1.80
2023-08-11T07:55:01.306Z,1.88
2023-08-11T07:57:02.946Z,2.15
2023-08-11T07:59:04.543Z,2.35
2023-08-11T08:01:07.696Z,2.03
2023-08-11T08:03:09.171Z,2.10
2023-08-11T08:05:13.485Z,1.98
2023-08-11T08:07:15.258Z,1.90
2023-08-11T08:09:16.842Z,1.80
2023-08-11T08:11:18.409Z,1.88
2023-08-11T08:13:19.875Z,2.00
2023-08-11T08:15:21.409Z,1.50
2023-08-11T08:17:22.865Z,1.70
2023-08-11T08:19:24.284Z,1.80
2023-08-11T08:21:25.762Z,1.92
2023-08-11T08:23:27.255Z,2.20
2023-08-11T08:25:28.894Z,1.90
2023-08-11T08:27:31.266Z,1.80
2023-08-11T08:29:35.148Z,1.90
2023-08-11T08:31:37.168Z,1.90
2023-08-11T08:33:38.647Z,1.73
2023-08-11T08:35:40.177Z,2.03
2023-08-11T08:37:42.033Z,2.33
2023-08-11T08:39:44.966Z,1.65
2023-08-11T08:41:48.409Z,2.03
2023-08-11T08:43:51.763Z,1.85
2023-08-11T08:45:54.222Z,1.92
2023-08-11T08:47:58.402Z,1.88
2023-08-11T08:50:01.683Z,2.15
2023-08-11T08:52:05.974Z,1.90
2023-08-11T08:54:10.994Z,1.70
2023-08-11T08:56:13.684Z,2.20
2023-08-11T08:58:17.094Z,2.10
2023-08-11T09:00:19.749Z,2.15
2023-08-11T09:02:22.423Z,1.98
2023-08-11T09:04:24.050Z,1.90
2023-08-11T09:06:27.617Z,2.30
2023-08-11T09:08:32.399Z,1.80
2023-08-11T09:10:37.576Z,1.92
2023-08-11T09:12:39.119Z,2.40
2023-08-11T09:14:42.974Z,1.92
2023-08-11T09:16:44.447Z,1.90
2023-08-11T09:18:46.091Z,1.58
2023-08-11T09:20:49.608Z,1.58
2023-08-11T09:22:51.071Z,1.90
2023-08-11T09:24:54.918Z,2.15
2023-08-11T09:26:59.360Z,1.90
2023-08-11T09:29:00.846Z,2.03
2023-08-11T09:31:02.527Z,1.73
2023-08-11T09:33:04.934Z,2.22
2023-08-11T09:35:10.535Z,1.95
2023-08-11T09:37:12.146Z,1.88
2023-08-11T09:39:14.905Z,1.95
2023-08-11T09:41:17.748Z,1.80
2023-08-11T09:43:19.237Z,1.83
2023-08-11T09:45:20.695Z,2.00
2023-08-11T09:47:23.032Z,1.90
2023-08-11T09:49:24.794Z,2.08
2023-08-11T09:51:26.344Z,1.60
2023-08-11T09:53:28.434Z,1.80
2023-08-11T09:55:32.693Z,1.73
2023-08-11T09:57:44.853Z,1.90
2023-08-11T09:59:48.477Z,1.60
2023-08-11T10:01:55.062Z,1.85
2023-08-11T10:03:58.660Z,2.08
2023-08-11T10:06:03.697Z,2.00
2023-08-11T10:08:07.387Z,1.90
2023-08-11T10:10:19.457Z,1.67
2023-08-11T10:12:22.030Z,1.67
2023-08-11T10:14:26.707Z,1.52
2023-08-11T10:16:29.150Z,1.90
2023-08-11T10:18:32.510Z,1.52
2023-08-11T10:20:34.555Z,2.28
2023-08-11T10:22:36.046Z,1.85
2023-08-11T10:24:38.836Z,1.80
2023-08-11T10:26:41.394Z,1.70
2023-08-11T10:28:43.072Z,1.77
2023-08-11T10:30:44.652Z,1.95
2023-08-11T10:32:46.225Z,1.90
2023-08-11T10:34:47.707Z,1.83
2023-08-11T10:36:49.215Z,1.75
2023-08-11T10:39:08.662Z,1.83
2023-08-11T10:41:11.465Z,1.80
2023-08-11T10:43:17.464Z,2.15
2023-08-11T10:45:22.279Z,2.03
2023-08-11T10:47:23.742Z,2.00
2023-08-11T10:49:35.627Z,1.70
2023-08-11T10:51:39.098Z,1.63
2023-08-11T10:53:40.945Z,1.90
2023-08-11T10:55:42.402Z,1.90
2023-08-11T10:57:43.870Z,1.75
2023-08-11T10:59:45.414Z,1.95
2023-08-11T11:01:48.535Z,2.13
2023-08-11T11:03:50.756Z,4.47
2023-08-11T11:05:52.832Z,2.15
2023-08-11T11:07:54.716Z,6.25
2023-08-11T11:09:56.185Z,3.00
2023-08-11T11:11:57.806Z,5.90
2023-08-11T11:13:59.591Z,2.22
2023-08-11T11:16:01.089Z,2.40
2023-08-11T11:18:02.757Z,2.05
2023-08-11T11:20:04.661Z,1.95
2023-08-11T11:22:08.522Z,2.10
2023-08-11T11:24:11.169Z,2.33
2023-08-11T11:26:22.462Z,2.05
2023-08-11T11:28:24.011Z,1.83
2023-08-11T11:30:25.493Z,1.95
2023-08-11T11:32:27.877Z,2.22
2023-08-11T11:34:29.403Z,1.70
2023-08-11T11:36:31.378Z,2.00
2023-08-11T11:38:32.967Z,1.88
2023-08-11T11:40:34.439Z,2.00
2023-08-11T11:42:39.288Z,2.13
2023-08-11T11:44:43.437Z,1.90
2023-08-11T11:46:46.164Z,1.80
2023-08-11T11:48:54.950Z,2.08
2023-08-11T11:50:57.390Z,2.17
2023-08-11T11:52:58.896Z,1.80
2023-08-11T11:55:04.789Z,1.88
2023-08-11T11:57:08.255Z,1.85
2023-08-11T11:59:11.590Z,1.92
2023-08-11T12:01:16.178Z,1.88
2023-08-11T12:03:17.859Z,1.67
2023-08-11T12:05:19.481Z,1.92
2023-08-11T12:07:34.421Z,2.00
2023-08-11T12:09:54.838Z,2.08
2023-08-11T12:11:56.730Z,1.67
2023-08-11T12:14:00.631Z,1.70
2023-08-11T12:16:03.107Z,1.63
2023-08-11T12:18:05.992Z,1.80
2023-08-11T12:20:11.359Z,2.17
2023-08-11T12:22:12.945Z,1.80
2023-08-11T12:24:17.204Z,2.22
2023-08-11T12:26:18.658Z,2.17
2023-08-11T12:28:21.108Z,1.80
2023-08-11T12:30:22.599Z,1.88
2023-08-11T12:32:24.110Z,1.67
2023-08-11T12:34:25.553Z,1.83
2023-08-11T12:36:26.970Z,1.90
2023-08-11T12:38:28.486Z,2.40
2023-08-11T12:40:31.241Z,1.80
2023-08-11T12:42:32.657Z,1.90
2023-08-11T12:44:34.133Z,1.80
2023-08-11T12:46:37.257Z,1.80
2023-08-11T12:48:38.830Z,1.95
2023-08-11T12:50:41.457Z,1.98
2023-08-11T12:52:42.889Z,2.03
2023-08-11T12:54:44.327Z,1.80
2023-08-11T12:56:46.275Z,2.00
2023-08-11T12:58:47.987Z,1.63
2023-08-11T13:00:49.395Z,2.00
2023-08-11T13:02:50.943Z,2.28
2023-08-11T13:04:52.516Z,2.20
2023-08-11T13:06:53.950Z,1.85
2023-08-11T13:08:55.635Z,1.80
2023-08-11T13:10:57.096Z,1.92
2023-08-11T13:12:58.623Z,2.00
2023-08-11T13:15:00.127Z,2.00
2023-08-11T13:17:01.612Z,2.08
2023-08-11T13:19:03.935Z,1.80
2023-08-11T13:21:06.342Z,1.88
2023-08-11T13:23:08.186Z,1.77
2023-08-11T13:25:10.910Z,1.80
2023-08-11T13:27:12.857Z,2.13
2023-08-11T13:29:14.365Z,1.75
2023-08-11T13:31:15.860Z,2.08
2023-08-11T13:33:17.370Z,2.10
2023-08-11T13:35:18.925Z,2.00
2023-08-11T13:37:20.409Z,2.17
2023-08-11T13:39:22.286Z,1.90
2023-08-11T13:41:23.860Z,2.00
2023-08-11T13:43:26.238Z,2.40
2023-08-11T13:45:27.787Z,2.15
2023-08-11T13:47:29.312Z,2.00
2023-08-11T13:49:30.791Z,2.28
2023-08-11T13:51:33.616Z,1.75
2023-08-11T13:53:35.112Z,1.90
2023-08-11T13:55:36.781Z,2.20
2023-08-11T13:57:38.258Z,2.13
2023-08-11T13:59:39.782Z,1.98
2023-08-11T14:01:41.222Z,2.00
2023-08-11T14:03:42.685Z,1.70
2023-08-11T14:05:44.208Z,2.70
2023-08-11T14:07:49.617Z,2.30
2023-08-11T14:09:51.414Z,2.20
2023-08-11T14:11:56.201Z,2.13
2023-08-11T14:13:57.919Z,2.20
2023-08-11T14:15:59.465Z,2.05
2023-08-11T14:18:01.035Z,2.55
2023-08-11T14:20:02.508Z,2.17
2023-08-11T14:22:03.982Z,3.05
2023-08-11T14:24:06.028Z,3.92
2023-08-11T14:26:08.379Z,2.83
2023-08-11T14:28:09.837Z,3.05
2023-08-11T14:30:12.092Z,3.28
2023-08-11T14:32:23.187Z,3.55
2023-08-11T14:34:26.717Z,4.70
2023-08-11T14:36:28.159Z,3.50
2023-08-11T14:38:29.623Z,3.00
2023-08-11T14:40:31.032Z,3.28
2023-08-11T14:42:32.500Z,2.53
2023-08-11T14:44:33.907Z,2.10
2023-08-11T14:46:35.378Z,2.30
2023-08-11T14:48:36.871Z,3.15
2023-08-11T14:50:38.341Z,2.47
2023-08-11T14:52:39.753Z,2.40
2023-08-11T14:54:41.257Z,2.00
2023-08-11T14:56:42.984Z,2.42
2023-08-11T14:58:46.642Z,2.17
2023-08-11T15:00:48.864Z,2.33
2023-08-11T15:02:50.410Z,2.20
2023-08-11T15:04:52.846Z,2.92
2023-08-11T15:06:54.310Z,2.20
2023-08-11T15:08:55.773Z,2.60
2023-08-11T15:10:57.344Z,2.10
2023-08-11T15:13:00.713Z,2.55
2023-08-11T15:15:02.188Z,2.17
2023-08-11T15:17:03.862Z,2.42
2023-08-11T15:19:05.359Z,2.60
2023-08-11T15:21:07.666Z,2.92
2023-08-11T15:23:09.159Z,2.35
2023-08-11T15:25:10.674Z,2.45
2023-08-11T15:27:14.034Z,2.00
2023-08-11T15:29:15.577Z,2.17
2023-08-11T15:31:17.754Z,2.30
2023-08-11T15:33:19.249Z,2.13
2023-08-11T15:35:20.863Z,2.67
2023-08-11T15:37:22.320Z,3.20
2023-08-11T15:39:23.940Z,2.60
2023-08-11T15:41:25.392Z,2.30
2023-08-11T15:43:26.861Z,2.80
2023-08-11T15:45:29.110Z,2.58
2023-08-11T15:47:30.594Z,2.53
2023-08-11T15:49:32.024Z,2.53
2023-08-11T15:51:33.578Z,2.45
2023-08-11T15:53:35.042Z,2.50
2023-08-11T15:55:37.115Z,2.80
2023-08-11T15:57:38.661Z,2.33
2023-08-11T15:59:40.196Z,2.45
2023-08-11T16:01:44.285Z,2.42
2023-08-11T16:03:57.389Z,2.33
2023-08-11T16:05:59.823Z,2.58
2023-08-11T16:08:01.362Z,2.17
2023-08-11T16:10:03.147Z,1.90
2023-08-11T16:12:05.070Z,2.28
2023-08-11T16:14:06.543Z,2.10
2023-08-11T16:16:09.719Z,2.75
2023-08-11T16:18:11.872Z,2.60
2023-08-11T16:20:13.490Z,2.90
2023-08-11T16:22:15.022Z,2.60
2023-08-11T16:24:16.601Z,2.40
2023-08-11T16:26:18.038Z,3.10
2023-08-11T16:28:19.510Z,2.60
2023-08-11T16:30:21.100Z,2.50
2023-08-11T16:32:22.596Z,1.98
2023-08-11T16:34:24.955Z,2.17
2023-08-11T16:36:26.523Z,2.00
2023-08-11T16:38:28.019Z,2.00
2023-08-11T16:40:30.904Z,2.03
2023-08-11T16:42:32.382Z,2.15
2023-08-11T16:44:33.814Z,1.90
2023-08-11T16:46:35.261Z,2.55
2023-08-11T16:48:36.795Z,2.92
2023-08-11T16:50:38.790Z,2.00
2023-08-11T16:52:40.303Z,2.35
2023-08-11T16:54:41.781Z,2.20
2023-08-11T16:56:43.299Z,2.13
2023-08-11T16:58:44.741Z,2.10
2023-08-11T17:00:48.293Z,2.00
2023-08-11T17:02:52.254Z,2.20
2023-08-11T17:04:53.778Z,2.13
2023-08-11T17:06:55.214Z,2.10
2023-08-11T17:08:56.700Z,2.40
2023-08-11T17:10:58.346Z,2.33
2023-08-11T17:12:59.819Z,2.13
2023-08-11T17:15:01.330Z,2.10
2023-08-11T17:17:02.876Z,2.17
2023-08-11T17:19:04.559Z,2.42
2023-08-11T17:21:06.067Z,2.22
2023-08-11T17:23:07.608Z,2.00
2023-08-11T17:25:09.373Z,2.45
2023-08-11T17:27:10.880Z,2.10
2023-08-11T17:29:12.449Z,2.10
2023-08-11T17:31:14.252Z,2.45
2023-08-11T17:33:15.781Z,2.05
2023-08-11T17:35:17.345Z,2.38
2023-08-11T17:37:18.763Z,2.10
2023-08-11T17:39:21.360Z,2.13
2023-08-11T17:41:25.262Z,2.22
2023-08-11T17:43:26.870Z,2.72
2023-08-11T17:45:28.526Z,2.45
2023-08-11T17:47:30.007Z,2.20
2023-08-11T17:49:31.594Z,2.50
2023-08-11T17:51:33.100Z,2.60
2023-08-11T17:53:34.589Z,2.17
2023-08-11T17:55:36.067Z,1.92
2023-08-11T17:57:37.527Z,2.42
2023-08-11T17:59:39.365Z,2.65
2023-08-11T18:01:41.056Z,2.45
2023-08-11T18:03:42.628Z,2.60
2023-08-11T18:05:44.413Z,2.13
2023-08-11T18:07:45.948Z,2.85
2023-08-11T18:09:47.379Z,2.78
2023-08-11T18:11:48.873Z,2.78
2023-08-11T18:13:50.330Z,2.80
2023-08-11T18:15:51.800Z,2.80
2023-08-11T18:17:54.731Z,2.70
2023-08-11T18:19:56.380Z,3.00
2023-08-11T18:21:57.931Z,3.13
2023-08-11T18:23:59.478Z,3.25
2023-08-11T18:26:00.915Z,2.80
2023-08-11T18:28:02.433Z,2.72
2023-08-11T18:30:05.051Z,2.95
2023-08-11T18:32:06.694Z,3.35
2023-08-11T18:34:08.137Z,2.42
2023-08-11T18:36:09.764Z,2.67
2023-08-11T18:38:11.169Z,2.95
2023-08-11T18:40:12.794Z,2.60
2023-08-11T18:42:14.387Z,2.65
2023-08-11T18:44:18.921Z,2.70
2023-08-11T18:46:20.454Z,3.03
2023-08-11T18:48:21.911Z,2.97
2023-08-11T18:50:23.486Z,2.58
2023-08-11T18:52:24.955Z,2.97
2023-08-11T18:54:26.629Z,2.92
2023-08-11T18:56:28.135Z,2.95
2023-08-11T18:58:29.587Z,3.20
2023-08-11T19:00:31.072Z,2.80
2023-08-11T19:02:32.540Z,3.00
2023-08-11T19:04:34.166Z,3.30
2023-08-11T19:06:38.385Z,2.83
2023-08-11T19:08:39.878Z,2.92
2023-08-11T19:10:41.355Z,3.05
2023-08-11T19:12:42.816Z,3.08
2023-08-11T19:14:44.545Z,2.85
2023-08-11T19:16:46.032Z,3.00
2023-08-11T19:18:48.132Z,3.15
2023-08-11T19:20:49.832Z,3.28
2023-08-11T19:22:51.282Z,3.10
2023-08-11T19:24:52.734Z,2.95
2023-08-11T19:26:54.147Z,3.00
2023-08-11T19:28:56.392Z,3.05
2023-08-11T19:31:00.660Z,3.33
2023-08-11T19:33:02.618Z,2.90
2023-08-11T19:35:05.998Z,3.03
2023-08-11T19:37:08.006Z,3.30
2023-08-11T19:39:09.948Z,3.00
2023-08-11T19:41:11.933Z,3.40
2023-08-11T19:43:14.458Z,3.25
2023-08-11T19:45:15.903Z,2.92
2023-08-11T19:47:17.493Z,3.25
2023-08-11T19:49:21.543Z,3.38
2023-08-11T19:51:23.762Z,2.72
2023-08-11T19:53:25.344Z,3.20
2023-08-11T19:55:26.958Z,3.63
2023-08-11T19:57:28.444Z,3.08
2023-08-11T19:59:29.983Z,3.30
2023-08-11T20:01:31.879Z,3.38
2023-08-11T20:03:33.414Z,3.17
2023-08-11T20:05:41.816Z,3.30
2023-08-11T20:07:43.315Z,3.40
2023-08-11T20:09:44.761Z,3.78
2023-08-11T20:11:46.211Z,3.25
2023-08-11T20:13:47.696Z,3.05
2023-08-11T20:15:49.229Z,3.63
2023-08-11T20:17:50.776Z,3.42
2023-08-11T20:19:52.275Z,3.00
2023-08-11T20:21:53.928Z,3.22
2023-08-11T20:23:55.426Z,3.33
2023-08-11T20:25:56.914Z,3.25
2023-08-11T20:27:59.165Z,3.42
2023-08-11T20:30:00.649Z,3.75
2023-08-11T20:32:04.420Z,4.40
2023-08-11T20:34:06.625Z,4.57
2023-08-11T20:36:08.153Z,4.03
2023-08-11T20:38:09.573Z,3.53
2023-08-11T20:40:11.490Z,3.63
2023-08-11T20:42:12.959Z,4.05
2023-08-11T20:44:14.414Z,3.85
2023-08-11T20:46:15.881Z,3.90
2023-08-11T20:48:17.745Z,4.72
2023-08-11T20:50:19.304Z,3.80
2023-08-11T20:52:20.830Z,3.67
2023-08-11T20:54:22.768Z,3.35
2023-08-11T20:56:24.289Z,3.85
2023-08-11T20:58:25.811Z,4.03
2023-08-11T21:00:27.234Z,3.90
2023-08-11T21:02:28.918Z,3.95
2023-08-11T21:04:30.520Z,4.15
2023-08-11T21:06:32.232Z,4.05
2023-08-11T21:08:33.809Z,4.18
2023-08-11T21:10:35.843Z,4.10
2023-08-11T21:12:37.300Z,4.45
2023-08-11T21:14:38.796Z,4.65
2023-08-11T21:16:41.061Z,4.80
2023-08-11T21:18:42.604Z,4.57
2023-08-11T21:20:44.161Z,4.55
2023-08-11T21:22:45.603Z,4.55
2023-08-11T21:24:47.083Z,4.60
2023-08-11T21:26:48.600Z,4.55
2023-08-11T21:28:50.313Z,4.50
2023-08-11T21:31:03.841Z,4.55
2023-08-11T21:33:13.492Z,4.30
2023-08-11T21:35:14.988Z,4.40
2023-08-11T21:37:16.440Z,4.30
2023-08-11T21:39:19.150Z,4.88
2023-08-11T21:41:20.603Z,4.65
2023-08-11T21:43:22.442Z,5.57
2023-08-11T21:45:24.060Z,5.10
2023-08-11T21:47:25.681Z,5.38
2023-08-11T21:49:27.119Z,4.97
2023-08-11T21:51:28.596Z,4.85
2023-08-11T21:53:30.188Z,4.75
2023-08-11T21:55:31.674Z,4.82
2023-08-11T21:57:33.565Z,4.97
2023-08-11T21:59:35.063Z,5.38
2023-08-11T22:01:36.527Z,5.40
2023-08-11T22:03:38.003Z,4.70
2023-08-11T22:05:39.734Z,4.72
2023-08-11T22:07:43.590Z,4.90
2023-08-11T22:09:45.161Z,5.00
2023-08-11T22:11:46.660Z,5.05
2023-08-11T22:13:48.145Z,5.10
2023-08-11T22:15:50.833Z,5.10
2023-08-11T22:17:54.550Z,5.00
2023-08-11T22:19:56.220Z,4.88
2023-08-11T22:21:57.979Z,4.95
2023-08-11T22:23:59.446Z,4.85
2023-08-11T22:26:00.886Z,6.40
2023-08-11T22:28:03.003Z,5.40
2023-08-11T22:30:06.088Z,6.22
2023-08-11T22:32:07.725Z,5.68
2023-08-11T22:34:09.242Z,5.10
2023-08-11T22:36:10.683Z,5.07
2023-08-11T22:38:12.654Z,4.43
2023-08-11T22:40:14.186Z,5.43
2023-08-11T22:42:27.884Z,4.93
2023-08-11T22:44:29.403Z,5.13
2023-08-11T22:46:30.878Z,5.80
2023-08-11T22:48:32.473Z,5.40
2023-08-11T22:50:34.038Z,5.35
2023-08-11T22:52:36.028Z,5.93
2023-08-11T22:54:37.620Z,5.82
2023-08-11T22:56:39.117Z,5.15
2023-08-11T22:58:40.559Z,6.47
2023-08-11T23:00:44.840Z,5.85
2023-08-11T23:02:46.334Z,6.78
2023-08-11T23:04:47.898Z,6.55
2023-08-11T23:06:49.347Z,6.65
2023-08-11T23:08:50.803Z,6.95
2023-08-11T23:10:52.299Z,6.60
2023-08-11T23:12:53.781Z,7.43
2023-08-11T23:14:55.349Z,7.60
2023-08-11T23:16:57.771Z,7.60
2023-08-11T23:18:59.762Z,7.55
2023-08-11T23:21:04.129Z,7.95
2023-08-11T23:23:05.613Z,7.50
2023-08-11T23:25:07.441Z,8.02
2023-08-11T23:27:09.331Z,9.43
2023-08-11T23:29:11.104Z,9.40
2023-08-11T23:31:12.636Z,8.68
2023-08-11T23:33:14.145Z,8.77
2023-08-11T23:35:15.768Z,9.07
2023-08-11T23:37:17.212Z,8.18
2023-08-11T23:39:18.975Z,8.90
2023-08-11T23:41:20.506Z,8.70
2023-08-11T23:43:21.975Z,8.98
2023-08-11T23:45:23.753Z,8.23
2023-08-11T23:47:25.707Z,9.65
2023-08-11T23:49:27.183Z,9.45
2023-08-11T23:51:28.737Z,10.68
2023-08-11T23:53:30.166Z,10.48
2023-08-11T23:55:31.665Z,11.25
2023-08-11T23:57:35.266Z,12.00
2023-08-11T23:59:37.135Z,12.63
